In Rescue
 
Open Full Screen Window  High Contrast Mode
September 19, 2019 4:42 PM CDT
Weather Information
Wind Direction
  ---
Wind Speed
  00 kt (0 mph)
Wind Gust
  00 kt (0 mph)
Altimeter
30.02 in
Visibility
10 SM
Temperature
26° C
79° F
Dewpoint
19° C
66° F
Humidity
65%
1hr Rain Fall
00.00 in.
24hr Rain Fall
00.66 in.
Sky Condition
Scattered @ 3,300 ft
Scattered @ 2,400 ft
VFR

METAR K9MN 192142Z AUTO 00000KT 10SM SCT024 SCT033 26/19 A3002 RMK AO1 T02580190

FAA Disclaimer: The data displayed is for advisory purposes only and is not to be used for flight planning or operations.